Accueil
METAR-TAF:

METAR-TAF

Aéroports :

St Athan, Pays de Galles

latitude: 51-24N, longitude: 003-26W, altitude: 50 m

Observation

Le bulletin a été fait il y a 48 minutes, à 00:50 UTC
Vent 11 kt de ouest/nord-ouest
Température 8°C
Humidité 81%
Pression 1025 hPa
Visibilité 10 km ou plus

METAR: EGDX 100050Z AUTO 30011KT 9999 FEW035/// 08/05 Q1025

Heure: 01:38 (01:38 UTC)

Prévision

Le bulletin a été fait il y a 12 heures et 2 minutes, à 13:36 UTC
Prévision valable du 09 à 15 UTC au 09 à 18 UTC
Vent 15 kt de nord-ouest avec des rafales jusqu'à 25 kt
Visibilité 10 km ou plus
Nuages épars à une hauteur de 2500 ft
Temporairement
du 09 à 15 UTC au 09 à 18 UTC
Vent 12 kt de ouest/nord-ouest

TAF: EGDX 091336Z 0915/0918 31015G25KT 9999 SCT025 TEMPO 0915/0918 30012KT

Observations et prévisions météorologiques de plus de 4000 aéroports (messages METAR et TAF).

Les stations disponibles sont représentées par des disques jaunes et rouges sur la carte.

Passer la souris dessus pour voir le nom de la station.

Cliquer dessus pour voir les observations et prévisions météorologiques.

Pour changer de carte: cliquez sur les boutons verts avec une croix noire pour zoomer, sur le bouton vert avec un tiret pour effectuer un zoom arrière, ou sur les flèches vertes pour les cartes adjacentes.


METAR-TAF: